Time;durP1;ratioP1;P1;durP2;ratioP2;P2;SDS_P1;SDS_P2;PMS_P1;PMS_P2;Temp;Humidity;BMP_temperature;BMP_pressure;BME280_temperature;BME280_humidity;BME280_pressure;Samples;Min_cycle;Max_cycle;Signal;HPM_P1;HPM_P2
2024/04/19 00:02:10;;;;;;;2.00;0.30;;;;;;;7.19;92.03;100752.78;5488041;26;20500;-67
2024/04/19 00:04:35;;;;;;;2.50;0.97;;;;;;;7.22;92.34;100751.44;5483918;26;20710;-68
2024/04/19 00:07:03;;;;;;;2.00;0.30;;;;;;;7.20;92.08;100757.06;5492293;26;20483;-68
2024/04/19 00:09:32;;;;;;;2.20;0.50;;;;;;;7.17;92.12;100746.03;5422555;26;20268;-68
2024/04/19 00:12:00;;;;;;;2.10;0.50;;;;;;;7.22;92.43;100752.25;5410073;26;20791;-68
2024/04/19 00:14:25;;;;;;;2.10;0.40;;;;;;;7.23;92.69;100753.03;5451427;26;20470;-68
2024/04/19 00:16:54;;;;;;;2.00;0.40;;;;;;;7.18;92.67;100743.09;5409968;26;20451;-68
2024/04/19 00:19:20;;;;;;;2.77;0.73;;;;;;;7.26;93.09;100737.13;5409923;26;20293;-67
2024/04/19 00:21:48;;;;;;;2.10;0.40;;;;;;;7.27;92.49;100738.75;5409995;26;20507;-68
2024/04/19 00:24:14;;;;;;;2.20;0.63;;;;;;;7.29;92.03;100736.56;5415243;26;20852;-67
2024/04/19 00:26:45;;;;;;;2.27;0.63;;;;;;;7.25;92.06;100732.81;5430528;26;20519;-67
2024/04/19 00:29:11;;;;;;;2.40;0.60;;;;;;;7.30;91.75;100729.28;5410048;26;20233;-68
2024/04/19 00:31:39;;;;;;;2.20;0.60;;;;;;;7.21;92.01;100726.34;5409699;26;20463;-67
2024/04/19 00:34:05;;;;;;;2.10;0.40;;;;;;;7.23;91.89;100718.00;5410887;26;20764;-67
2024/04/19 00:36:33;;;;;;;2.40;0.70;;;;;;;7.20;91.61;100716.66;5452636;26;20464;-67
2024/04/19 00:38:59;;;;;;;2.10;0.40;;;;;;;7.20;92.33;100715.88;5434299;26;20558;-67
2024/04/19 00:41:27;;;;;;;2.10;0.40;;;;;;;7.24;93.07;100711.53;5409529;26;20459;-67
2024/04/19 00:43:55;;;;;;;3.37;0.40;;;;;;;7.32;92.51;100711.78;5409569;26;20718;-67
2024/04/19 00:46:23;;;;;;;2.23;0.57;;;;;;;7.28;92.93;100712.59;5451573;26;20524;-67
2024/04/19 00:48:49;;;;;;;2.20;0.70;;;;;;;7.28;93.30;100704.53;5409360;26;20463;-67
2024/04/19 00:51:18;;;;;;;2.00;0.40;;;;;;;7.30;93.12;100708.56;5409391;26;20580;-67
2024/04/19 00:53:44;;;;;;;2.30;0.50;;;;;;;7.25;93.89;100705.88;5409436;26;20237;-67
2024/04/19 00:56:12;;;;;;;2.10;0.50;;;;;;;7.24;94.38;100709.66;5414749;26;20542;-66
2024/04/19 00:58:38;;;;;;;2.00;0.40;;;;;;;7.26;94.32;100702.13;5469523;26;20994;-67
2024/04/19 01:01:09;;;;;;;2.00;0.30;;;;;;;7.20;94.61;100697.00;5428096;26;20519;-67
2024/04/19 01:03:35;;;;;;;2.30;0.60;;;;;;;7.30;94.63;100691.56;5414700;26;20547;-67
2024/04/19 01:06:04;;;;;;;2.10;0.47;;;;;;;7.33;93.70;100694.53;5409223;26;20569;-67
2024/04/19 01:08:30;;;;;;;2.10;0.43;;;;;;;7.36;94.05;100690.47;5409194;26;20710;-67
2024/04/19 01:11:00;;;;;;;2.87;0.60;;;;;;;7.33;93.31;100691.03;5408687;26;20459;-66
2024/04/19 01:13:28;;;;;;;2.10;0.50;;;;;;;7.27;93.61;100681.38;5415906;26;20879;-66
2024/04/19 01:15:54;;;;;;;2.37;0.80;;;;;;;7.29;93.62;100680.00;5408956;26;20468;-66
2024/04/19 01:18:25;;;;;;;2.10;0.40;;;;;;;7.29;94.23;100674.59;5407782;26;20451;-67
2024/04/19 01:20:51;;;;;;;2.67;0.87;;;;;;;7.29;93.48;100669.22;5408616;26;20268;-66
2024/04/19 01:23:21;;;;;;;2.07;0.40;;;;;;;7.29;93.34;100666.50;5414016;26;20824;-66
2024/04/19 01:25:48;;;;;;;2.30;0.50;;;;;;;7.26;93.66;100664.41;5475246;26;20593;-66
2024/04/19 01:28:19;;;;;;;2.10;0.50;;;;;;;7.20;93.65;100652.00;5485665;26;20460;-67
2024/04/19 01:30:44;;;;;;;2.20;0.60;;;;;;;7.19;92.18;100649.59;5491285;26;21073;-67
2024/04/19 01:33:13;;;;;;;2.50;0.53;;;;;;;7.17;92.87;100649.06;5415561;26;20479;-66
2024/04/19 01:35:39;;;;;;;2.40;0.50;;;;;;;7.13;93.90;100643.44;5436537;26;20580;-66
2024/04/19 01:38:08;;;;;;;2.10;0.43;;;;;;;7.09;93.29;100642.38;5408738;26;20455;-67
2024/04/19 01:40:33;;;;;;;2.63;0.77;;;;;;;7.02;93.65;100645.34;5408790;26;20323;-66
2024/04/19 01:43:02;;;;;;;2.20;0.60;;;;;;;6.94;93.81;100637.84;5408427;26;20829;-66
2024/04/19 01:45:30;;;;;;;2.47;0.73;;;;;;;6.86;93.09;100637.59;5408726;26;20229;-67
2024/04/19 01:47:58;;;;;;;2.00;0.40;;;;;;;6.83;93.14;100628.22;5444543;26;20472;-66
2024/04/19 01:50:24;;;;;;;2.40;0.90;;;;;;;6.87;93.86;100628.47;5491006;26;20801;-66
2024/04/19 01:52:53;;;;;;;2.00;0.30;;;;;;;6.83;94.65;100618.25;5478950;26;20535;-67
2024/04/19 01:55:19;;;;;;;2.10;0.40;;;;;;;6.79;94.65;100619.88;5408523;26;20277;-67
2024/04/19 01:57:47;;;;;;;2.10;0.43;;;;;;;6.78;95.32;100609.38;5448462;26;20582;-67
2024/04/19 02:00:13;;;;;;;2.10;0.50;;;;;;;6.75;95.82;100599.97;5410062;26;20770;-67
2024/04/19 02:02:44;;;;;;;2.53;0.63;;;;;;;6.72;96.67;100595.13;5408609;26;20998;-67
2024/04/19 02:05:10;;;;;;;2.40;0.67;;;;;;;6.61;97.48;100598.16;5408645;26;20237;-68
2024/04/19 02:07:38;;;;;;;2.50;1.07;;;;;;;6.65;97.39;100600.00;5413790;26;20460;-67
2024/04/19 02:10:06;;;;;;;2.00;0.30;;;;;;;6.67;97.50;100592.44;5441869;26;20358;-67
2024/04/19 02:12:34;;;;;;;2.30;0.70;;;;;;;6.68;97.71;100582.50;5408283;26;20516;-68
2024/04/19 02:15:00;;;;;;;3.73;1.37;;;;;;;6.69;98.11;100579.53;5408111;26;21040;-67
2024/04/19 02:17:28;;;;;;;2.40;0.50;;;;;;;6.73;97.83;100583.31;5408036;26;20471;-68
2024/04/19 02:19:56;;;;;;;2.27;0.63;;;;;;;6.76;97.98;100573.84;5408213;26;20221;-67
2024/04/19 02:22:25;;;;;;;2.10;0.40;;;;;;;6.75;98.22;100567.66;5432922;26;20538;-67
2024/04/19 02:24:50;;;;;;;2.10;0.40;;;;;;;6.74;98.22;100559.88;5407853;26;20975;-67
2024/04/19 02:32:46;;;;;;;2.40;0.73;;;;;;;6.73;98.89;100552.84;5435982;26;21074;-67
2024/04/19 02:35:17;;;;;;;2.53;0.70;;;;;;;6.74;98.90;100554.50;5490413;26;20501;-67
2024/04/19 02:37:47;;;;;;;2.30;0.80;;;;;;;6.72;98.78;100535.91;5412054;26;20471;-66
2024/04/19 02:40:15;;;;;;;2.20;0.50;;;;;;;6.64;98.15;100527.59;5407987;26;20511;-67
2024/04/19 02:42:41;;;;;;;2.20;0.50;;;;;;;6.61;97.58;100528.16;5443071;26;20520;-66
2024/04/19 02:45:09;;;;;;;3.33;0.83;;;;;;;6.61;97.00;100528.97;5462715;20;20505;-66
2024/04/19 02:47:38;;;;;;;2.30;0.60;;;;;;;6.57;96.99;100517.16;5446265;26;20275;-67
2024/04/19 02:50:06;;;;;;;2.20;0.53;;;;;;;6.57;97.38;100512.56;5443214;26;20596;-66
2024/04/19 02:52:37;;;;;;;2.30;0.70;;;;;;;6.60;97.33;100494.25;5447294;26;20481;-66
2024/04/19 02:55:06;;;;;;;2.40;0.50;;;;;;;6.56;98.60;100497.50;5479827;26;20578;-66
2024/04/19 02:57:34;;;;;;;2.00;0.30;;;;;;;6.53;99.24;100494.56;5472563;26;20518;-66
2024/04/19 03:00:02;;;;;;;2.20;0.60;;;;;;;6.51;98.45;100496.75;5443501;26;20454;-66
2024/04/19 03:02:31;;;;;;;2.10;0.50;;;;;;;6.51;97.49;100488.66;5443500;26;20530;-67
2024/04/19 03:04:59;;;;;;;2.83;0.93;;;;;;;6.54;97.50;100485.41;5471309;26;20465;-66
2024/04/19 03:07:27;;;;;;;2.70;0.83;;;;;;;6.56;98.38;100485.94;5479677;26;20460;-65
2024/04/19 03:09:58;;;;;;;2.07;0.40;;;;;;;6.55;97.80;100476.25;5447501;26;20462;-67
2024/04/19 03:12:26;;;;;;;2.13;0.47;;;;;;;6.58;97.70;100467.63;5443311;26;20864;-66
2024/04/19 03:14:54;;;;;;;2.63;0.80;;;;;;;6.61;97.38;100464.38;5458755;26;20513;-66
2024/04/19 03:17:23;;;;;;;2.10;0.50;;;;;;;6.61;97.28;100458.19;5479424;26;20521;-66
2024/04/19 03:19:51;;;;;;;2.50;1.00;;;;;;;6.62;96.50;100466.00;5459523;26;20466;-66
2024/04/19 03:22:19;;;;;;;2.07;0.40;;;;;;;6.61;97.30;100456.31;5443014;26;20450;-66
2024/04/19 03:24:47;;;;;;;2.20;0.40;;;;;;;6.63;97.39;100451.44;5445256;26;20466;-66
2024/04/19 03:27:18;;;;;;;2.10;0.40;;;;;;;6.63;97.81;100443.38;5462635;26;21003;-66
2024/04/19 03:29:50;;;;;;;2.20;0.60;;;;;;;6.58;97.41;100444.22;5471468;26;20462;-66
2024/04/19 03:32:18;;;;;;;2.07;0.40;;;;;;;6.56;97.22;100443.69;5442812;26;20607;-66
2024/04/19 03:34:47;;;;;;;2.07;0.40;;;;;;;6.56;97.05;100434.81;5442920;26;20506;-66
2024/04/19 03:37:15;;;;;;;2.10;0.50;;;;;;;6.61;97.16;100432.09;5470853;26;20520;-66
2024/04/19 03:39:44;;;;;;;2.20;0.57;;;;;;;6.66;97.46;100440.13;5478972;26;20501;-66
2024/04/19 03:42:14;;;;;;;2.73;0.97;;;;;;;6.68;97.93;100427.19;5448826;26;20514;-64
2024/04/19 03:47:29;;;;;;;2.07;0.47;;;;;;;6.79;97.79;100428.75;5484523;26;21036;-65
2024/04/19 03:49:57;;;;;;;2.20;0.50;;;;;;;6.82;96.89;100412.03;5482484;26;20449;-64
2024/04/19 03:52:26;;;;;;;2.10;0.50;;;;;;;6.81;96.09;100410.41;5456707;26;20574;-65
2024/04/19 03:54:54;;;;;;;3.90;0.80;;;;;;;6.78;96.03;100400.22;5446146;26;20533;-65
2024/04/19 03:57:23;;;;;;;2.40;0.40;;;;;;;6.77;96.46;100404.00;5468338;26;20524;-66
2024/04/19 03:59:53;;;;;;;2.40;0.80;;;;;;;6.79;96.69;100401.81;5482370;26;20460;-66
2024/04/19 04:02:22;;;;;;;3.23;0.93;;;;;;;6.85;96.19;100399.09;5468230;26;20469;-66
2024/04/19 04:04:50;;;;;;;2.00;0.40;;;;;;;6.86;95.67;100389.94;5445992;26;20446;-66
2024/04/19 04:07:18;;;;;;;3.90;0.93;;;;;;;6.90;95.64;100391.78;5455625;26;20574;-66
2024/04/19 04:09:46;;;;;;;2.50;0.40;;;;;;;6.96;95.46;100393.38;5481983;26;20531;-66
2024/04/19 04:12:15;;;;;;;2.50;0.60;;;;;;;7.00;94.21;100389.03;5479937;26;20572;-66
2024/04/19 04:14:43;;;;;;;2.63;0.60;;;;;;;7.03;93.77;100390.34;5445857;26;20537;-66
2024/04/19 04:17:14;;;;;;;2.60;0.57;;;;;;;7.07;93.94;100378.72;5445686;26;20457;-66
2024/04/19 04:19:42;;;;;;;2.20;0.50;;;;;;;7.08;92.72;100374.13;5480838;26;20468;-66
2024/04/19 04:22:10;;;;;;;2.40;0.93;;;;;;;7.07;91.89;100373.31;5481916;26;20449;-66
2024/04/19 04:24:38;;;;;;;2.10;0.43;;;;;;;7.05;92.20;100367.44;5454816;26;20462;-66
2024/04/19 04:27:07;;;;;;;2.20;0.50;;;;;;;7.03;93.27;100366.09;5445671;26;20450;-66
2024/04/19 04:29:35;;;;;;;2.60;0.80;;;;;;;7.07;92.92;100367.13;5467203;26;20460;-67
2024/04/19 04:32:03;;;;;;;2.20;0.70;;;;;;;7.06;91.96;100362.84;5450119;26;20514;-67
2024/04/19 04:34:34;;;;;;;2.93;0.90;;;;;;;7.13;91.49;100355.25;5445428;26;20474;-67
2024/04/19 04:37:02;;;;;;;2.60;0.70;;;;;;;7.12;90.83;100356.31;5445512;26;20454;-67
2024/04/19 04:39:31;;;;;;;2.30;0.70;;;;;;;7.17;90.77;100356.28;5457574;26;20461;-66
2024/04/19 04:41:59;;;;;;;2.10;0.43;;;;;;;7.17;91.09;100359.00;5482178;26;20521;-68
2024/04/19 04:44:32;;;;;;;2.53;0.67;;;;;;;7.19;90.98;100351.41;5481478;26;20521;-67
2024/04/19 04:47:00;;;;;;;2.13;0.50;;;;;;;7.26;91.35;100343.81;5479050;26;20469;-66
2024/04/19 04:49:29;;;;;;;2.40;1.07;;;;;;;7.32;91.34;100339.97;5481670;26;20501;-66
2024/04/19 04:52:00;;;;;;;2.00;0.30;;;;;;;7.34;90.86;100334.28;5481325;26;20468;-66
2024/04/19 04:54:28;;;;;;;2.30;0.53;;;;;;;7.40;90.71;100330.47;5481535;26;20468;-66
2024/04/19 04:56:56;;;;;;;2.20;0.57;;;;;;;7.41;89.38;100326.69;5481586;26;20448;-66
2024/04/19 04:59:24;;;;;;;2.20;0.50;;;;;;;7.40;89.73;100324.28;5479262;26;20460;-66
2024/04/19 05:01:53;;;;;;;2.20;0.57;;;;;;;7.44;90.57;100309.94;5481442;26;20513;-66
2024/04/19 05:04:21;;;;;;;2.33;0.73;;;;;;;7.51;90.51;100310.38;5481474;26;20577;-65
2024/04/19 05:06:49;;;;;;;2.20;0.50;;;;;;;7.54;89.67;100311.72;5481524;26;20445;-66
2024/04/19 05:09:20;;;;;;;3.23;0.90;;;;;;;7.55;88.93;100307.94;5479167;26;20464;-68
2024/04/19 05:11:49;;;;;;;2.50;0.70;;;;;;;7.56;89.42;100296.84;5481010;26;20481;-68
2024/04/19 05:14:17;;;;;;;2.20;0.63;;;;;;;7.58;89.29;100288.50;5481201;26;20866;-66
2024/04/19 05:16:45;;;;;;;3.13;0.60;;;;;;;7.62;89.57;100286.84;5481251;26;20456;-65
2024/04/19 05:19:13;;;;;;;2.43;0.70;;;;;;;7.67;89.17;100277.88;5478966;26;20506;-65
2024/04/19 05:21:42;;;;;;;3.20;0.83;;;;;;;7.69;88.74;100283.78;5481411;26;20520;-65
2024/04/19 05:24:11;;;;;;;3.20;0.70;;;;;;;7.69;89.01;100273.78;5481012;26;20559;-65
2024/04/19 05:26:41;;;;;;;2.50;0.97;;;;;;;7.74;88.62;100264.81;5480747;26;20461;-65
2024/04/19 05:29:10;;;;;;;2.30;0.80;;;;;;;7.78;87.73;100261.25;5481271;26;20976;-64
2024/04/19 05:31:38;;;;;;;2.00;0.40;;;;;;;7.86;89.17;100259.03;5478739;26;20513;-65
2024/04/19 05:34:06;;;;;;;2.20;0.60;;;;;;;7.90;88.08;100251.97;5481468;26;21007;-65
2024/04/19 05:36:34;;;;;;;2.20;0.60;;;;;;;7.90;88.08;100246.56;5480907;26;20453;-65
2024/04/19 05:39:03;;;;;;;3.23;0.70;;;;;;;7.87;88.97;100249.84;5478639;26;20456;-65
2024/04/19 05:41:31;;;;;;;3.10;1.33;;;;;;;7.88;89.29;100240.66;5480826;26;20452;-65
2024/04/19 05:44:03;;;;;;;2.30;0.73;;;;;;;7.86;90.83;100234.75;5479970;26;20468;-65
2024/04/19 05:46:31;;;;;;;2.27;0.70;;;;;;;7.87;92.73;100239.84;5479992;26;20480;-65
2024/04/19 05:49:00;;;;;;;2.00;0.30;;;;;;;7.86;93.65;100234.75;5479659;26;20814;-65
2024/04/19 05:51:28;;;;;;;2.50;0.93;;;;;;;7.83;95.84;100242.34;5445379;26;20857;-65
2024/04/19 05:53:57;;;;;;;6.83;2.33;;;;;;;7.82;94.93;100246.09;5451191;26;20472;-66
2024/04/19 05:56:27;;;;;;;2.90;1.50;;;;;;;7.75;96.44;100245.69;5480342;26;20465;-65
2024/04/19 05:58:57;;;;;;;2.37;0.70;;;;;;;7.68;96.16;100247.94;5480597;26;20513;-66
2024/04/19 06:01:28;;;;;;;2.43;0.70;;;;;;;7.55;97.51;100243.25;5475113;26;20868;-67
2024/04/19 06:03:56;;;;;;;2.20;0.70;;;;;;;7.45;98.89;100240.69;5479622;26;21011;-67
2024/04/19 06:06:24;;;;;;;2.47;0.60;;;;;;;7.40;99.80;100232.66;5480326;26;20509;-67
2024/04/19 06:08:53;;;;;;;2.30;0.57;;;;;;;7.33;99.94;100228.41;5480307;26;20566;-66
2024/04/19 06:11:21;;;;;;;3.53;1.23;;;;;;;7.22;99.70;100221.56;5466384;26;20956;-65
2024/04/19 06:13:50;;;;;;;2.93;0.83;;;;;;;7.15;100.00;100210.31;5444118;26;20527;-67
2024/04/19 06:16:18;;;;;;;2.50;1.00;;;;;;;7.15;100.00;100209.53;5444137;26;20466;-67
2024/04/19 06:18:49;;;;;;;2.27;0.80;;;;;;;7.16;98.50;100197.66;5464789;26;21047;-69
2024/04/19 06:21:18;;;;;;;2.10;0.50;;;;;;;7.17;99.84;100196.56;5445153;26;20454;-71
2024/04/19 06:23:46;;;;;;;2.60;0.70;;;;;;;7.10;99.61;100194.22;5465131;26;20466;-67
2024/04/19 06:26:14;;;;;;;2.40;0.87;;;;;;;7.07;98.38;100184.03;5444055;26;20462;-67
2024/04/19 06:28:42;;;;;;;2.73;0.60;;;;;;;7.02;95.25;100179.50;5443793;26;20446;-68
2024/04/19 06:31:12;;;;;;;2.97;1.07;;;;;;;7.00;95.27;100175.50;5443488;26;20846;-65
2024/04/19 06:33:41;;;;;;;2.13;0.50;;;;;;;6.98;95.16;100169.59;5447574;26;20605;-66
2024/04/19 06:36:12;;;;;;;2.70;0.73;;;;;;;6.91;94.30;100164.56;5479774;26;20469;-67
2024/04/19 06:38:40;;;;;;;2.10;0.40;;;;;;;6.88;97.15;100162.44;5480017;26;20457;-67
2024/04/19 06:41:09;;;;;;;2.53;0.90;;;;;;;6.95;98.31;100156.69;5461009;26;20461;-67
2024/04/19 06:43:37;;;;;;;2.10;0.50;;;;;;;7.01;98.76;100152.88;5443604;26;20522;-67
2024/04/19 06:46:06;;;;;;;2.10;0.50;;;;;;;7.00;98.23;100149.38;5471705;26;20851;-67
2024/04/19 06:48:34;;;;;;;2.20;0.50;;;;;;;7.02;98.00;100139.09;5479834;26;20448;-66
2024/04/19 06:51:02;;;;;;;2.60;0.93;;;;;;;7.03;97.18;100137.22;5473486;26;20462;-66
2024/04/19 06:53:33;;;;;;;3.43;1.77;;;;;;;6.92;97.59;100124.97;5456881;25;20484;-66
2024/04/19 06:56:01;;;;;;;3.67;1.30;;;;;;;6.91;99.47;100136.84;5478807;26;21074;-66
2024/04/19 06:58:30;;;;;;;2.50;0.73;;;;;;;6.87;98.79;100123.16;5469288;26;20513;-66
2024/04/19 07:00:58;;;;;;;2.30;0.67;;;;;;;6.87;99.32;100128.53;5477614;26;20464;-67
2024/04/19 07:03:26;;;;;;;2.80;0.70;;;;;;;6.81;99.55;100119.69;5479367;26;20476;-67
2024/04/19 07:05:54;;;;;;;2.17;0.50;;;;;;;6.76;100.00;100110.88;5463996;26;20762;-67
2024/04/19 07:08:23;;;;;;;2.83;0.70;;;;;;;6.75;100.00;100107.41;5463066;26;20520;-67
2024/04/19 07:10:54;;;;;;;2.10;0.50;;;;;;;6.72;100.00;100107.97;5468760;26;20464;-67
2024/04/19 07:13:22;;;;;;;2.50;0.50;;;;;;;6.68;100.00;100093.47;5479342;26;20476;-67
2024/04/19 07:15:50;;;;;;;2.20;0.60;;;;;;;6.68;100.00;100085.41;5478006;26;20456;-67
2024/04/19 07:18:22;;;;;;;2.57;1.03;;;;;;;6.76;100.00;100079.38;5479297;26;20457;-67
2024/04/19 07:20:50;;;;;;;2.40;0.90;;;;;;;6.83;100.00;100076.34;5466147;26;20521;-67
2024/04/19 07:23:19;;;;;;;2.07;0.40;;;;;;;6.87;100.00;100072.00;5479336;26;20893;-67
2024/04/19 07:25:47;;;;;;;2.97;1.00;;;;;;;7.03;100.00;100065.31;5478782;26;20509;-68
2024/04/19 07:28:18;;;;;;;2.80;1.00;;;;;;;7.14;100.00;100051.72;5479187;26;20457;-68
2024/04/19 07:30:47;;;;;;;2.30;0.57;;;;;;;7.08;100.00;100048.28;5477107;26;20520;-68
2024/04/19 07:33:15;;;;;;;2.10;0.50;;;;;;;7.04;100.00;100041.91;5442815;26;20474;-68
2024/04/19 07:35:43;;;;;;;2.40;0.77;;;;;;;7.05;100.00;100038.09;5442936;26;20511;-67
2024/04/19 07:38:13;;;;;;;2.90;1.40;;;;;;;7.09;100.00;100031.06;5442726;26;20458;-68
2024/04/19 07:40:42;;;;;;;3.50;1.20;;;;;;;7.07;100.00;100033.22;5450741;26;20933;-68
2024/04/19 07:43:10;;;;;;;2.10;0.50;;;;;;;7.01;100.00;100015.53;5468024;26;20469;-68
2024/04/19 07:45:41;;;;;;;2.87;0.77;;;;;;;7.01;100.00;100018.25;5477971;26;20469;-68
2024/04/19 07:48:10;;;;;;;3.07;0.97;;;;;;;7.02;100.00;100022.53;5478912;26;20457;-67
2024/04/19 07:50:38;;;;;;;4.47;1.40;;;;;;;7.00;100.00;100003.19;5456266;26;20462;-67
2024/04/19 07:53:08;;;;;;;2.20;0.60;;;;;;;6.97;100.00;100003.75;5474439;26;20524;-67
2024/04/19 07:55:41;;;;;;;3.20;1.80;;;;;;;6.94;100.00;100002.44;5478482;26;20456;-67
2024/04/19 07:58:10;;;;;;;2.37;0.90;;;;;;;6.92;100.00;100009.22;5478552;26;20581;-67
2024/04/19 08:00:38;;;;;;;2.10;0.50;;;;;;;6.91;100.00;99991.47;5466622;26;21066;-67
2024/04/19 08:03:09;;;;;;;2.30;0.70;;;;;;;6.91;100.00;99988.78;5474542;26;20513;-67
2024/04/19 08:05:38;;;;;;;2.10;0.60;;;;;;;6.95;100.00;99984.38;5471591;26;20536;-67
2024/04/19 08:08:07;;;;;;;2.30;0.63;;;;;;;6.94;99.57;99988.19;5478428;26;20513;-67
2024/04/19 08:10:35;;;;;;;3.20;1.33;;;;;;;6.96;100.00;99980.63;5479006;26;20468;-67
2024/04/19 08:13:04;;;;;;;2.30;0.60;;;;;;;7.01;100.00;99972.47;5478051;26;20520;-67
2024/04/19 08:15:32;;;;;;;4.33;1.40;;;;;;;7.07;100.00;99963.22;5474127;26;20539;-67
2024/04/19 08:18:01;;;;;;;3.33;0.70;;;;;;;7.14;100.00;99955.56;5478229;26;20843;-67
2024/04/19 08:20:31;;;;;;;2.30;0.63;;;;;;;7.14;100.00;99960.94;5478126;26;20537;-67
2024/04/19 08:23:00;;;;;;;2.10;0.60;;;;;;;7.10;100.00;99942.97;5453491;26;20477;-67
2024/04/19 08:25:28;;;;;;;2.83;1.63;;;;;;;7.14;100.00;99952.88;5450283;26;21032;-67
2024/04/19 08:27:56;;;;;;;2.63;1.00;;;;;;;7.12;100.00;99936.19;5481271;26;20837;-67
2024/04/19 08:30:25;;;;;;;2.77;1.23;;;;;;;7.18;100.00;99934.25;5481793;26;20452;-66
2024/04/19 08:32:53;;;;;;;3.70;1.60;;;;;;;7.21;100.00;99929.03;5479567;26;20836;-67
2024/04/19 08:35:21;;;;;;;3.40;1.33;;;;;;;7.24;100.00;99923.06;5473501;26;21027;-66
2024/04/19 08:37:52;;;;;;;3.20;1.17;;;;;;;7.24;100.00;99915.00;5480890;26;20473;-66
2024/04/19 08:40:21;;;;;;;2.20;0.60;;;;;;;7.23;100.00;99910.72;5474553;26;20472;-67
2024/04/19 08:42:49;;;;;;;2.73;0.80;;;;;;;7.28;100.00;99907.13;5481821;26;20520;-66
2024/04/19 08:45:22;;;;;;;2.60;1.10;;;;;;;7.27;100.00;99906.34;5483529;20;20505;-70
2024/04/19 08:47:52;;;;;;;3.13;1.07;;;;;;;7.32;100.00;99908.94;5462711;26;20512;-67
2024/04/19 08:50:20;;;;;;;3.10;1.30;;;;;;;7.34;100.00;99900.53;5477081;26;20872;-68
2024/04/19 08:52:51;;;;;;;3.23;0.87;;;;;;;7.37;100.00;99896.47;5445143;26;20881;-67
2024/04/19 08:55:21;;;;;;;2.50;0.90;;;;;;;7.44;100.00;99886.91;5443139;26;20989;-66
2024/04/19 08:57:50;;;;;;;2.30;0.60;;;;;;;7.49;100.00;99889.50;5445246;26;20458;-68
2024/04/19 09:00:15;;;;;;;2.20;0.60;;;;;;;7.54;100.00;99883.22;5445621;26;20510;-68
2024/04/19 09:02:44;;;;;;;3.60;1.40;;;;;;;7.55;100.00;99879.44;5444727;26;20478;-67
2024/04/19 09:05:10;;;;;;;3.30;1.53;;;;;;;7.57;100.00;99880.75;5445361;26;20282;-67
2024/04/19 09:07:39;;;;;;;2.07;0.47;;;;;;;7.62;100.00;99874.47;5445290;26;20490;-68
2024/04/19 09:10:12;;;;;;;2.10;0.50;;;;;;;7.69;100.00;99876.75;5444927;26;20216;-68
2024/04/19 09:12:41;;;;;;;2.33;0.87;;;;;;;7.67;100.00;99870.88;5438488;26;20519;-68
2024/04/19 09:15:09;;;;;;;2.33;0.73;;;;;;;7.63;100.00;99869.88;5445032;26;20477;-71
2024/04/19 09:17:38;;;;;;;2.20;0.67;;;;;;;7.65;100.00;99865.75;5444945;26;20985;-68
2024/04/19 09:20:08;;;;;;;2.50;1.03;;;;;;;7.58;100.00;99868.06;5444893;26;21026;-68
2024/04/19 09:22:36;;;;;;;2.43;0.93;;;;;;;7.55;100.00;99863.25;5441452;26;20913;-70
2024/04/19 09:25:05;;;;;;;4.07;1.23;;;;;;;7.49;100.00;99859.09;5444124;26;20462;-71
2024/04/19 09:27:39;;;;;;;2.27;0.73;;;;;;;7.41;100.00;99857.06;5444766;26;20837;-66
2024/04/19 09:30:09;;;;;;;2.20;0.70;;;;;;;7.41;100.00;99855.16;5444739;26;20506;-67
2024/04/19 09:32:37;;;;;;;3.90;1.33;;;;;;;7.45;100.00;99841.91;5443317;26;20478;-66
2024/04/19 09:35:06;;;;;;;3.43;1.53;;;;;;;7.49;100.00;99843.72;5437674;26;20993;-66
2024/04/19 09:37:34;;;;;;;2.60;0.60;;;;;;;7.51;100.00;99840.69;5444169;26;20510;-67
2024/04/19 09:40:02;;;;;;;2.27;0.57;;;;;;;7.52;100.00;99842.28;5444070;26;20514;-66
2024/04/19 09:42:37;;;;;;;3.13;1.30;;;;;;;7.51;100.00;99840.69;5444529;26;20812;-66
2024/04/19 09:45:11;;;;;;;2.10;0.53;;;;;;;7.43;100.00;99834.09;5435774;26;20469;-66
2024/04/19 09:47:41;;;;;;;2.40;1.10;;;;;;;7.37;100.00;99823.72;5444397;26;20517;-66
2024/04/19 09:50:13;;;;;;;2.80;0.67;;;;;;;7.30;100.00;99824.94;5444444;26;20454;-66
2024/04/19 09:52:46;;;;;;;2.00;0.50;;;;;;;7.26;100.00;99823.94;5423938;26;20570;-66
2024/04/19 09:55:20;;;;;;;2.10;0.60;;;;;;;7.30;100.00;99814.16;5415327;26;20466;-66
2024/04/19 09:57:52;;;;;;;2.63;0.83;;;;;;;7.27;100.00;99813.97;5444260;26;20608;-66
2024/04/19 10:00:23;;;;;;;2.43;1.00;;;;;;;7.27;100.00;99809.38;5444483;26;20473;-67
2024/04/19 10:02:52;;;;;;;1.90;0.30;;;;;;;7.28;100.00;99804.78;5428115;26;20882;-66
2024/04/19 10:05:21;;;;;;;2.77;1.10;;;;;;;7.29;100.00;99812.53;5408558;26;21052;-66
2024/04/19 10:07:51;;;;;;;2.00;0.50;;;;;;;7.22;100.00;99801.38;5441820;26;20506;-66
2024/04/19 10:10:19;;;;;;;2.40;0.80;;;;;;;7.15;100.00;99795.56;5444228;26;20559;-67
2024/04/19 10:12:47;;;;;;;2.20;0.47;;;;;;;7.11;100.00;99796.47;5444432;26;20896;-66
2024/04/19 10:15:21;;;;;;;1.90;0.30;;;;;;;7.06;100.00;99790.09;5444063;26;20454;-67
2024/04/19 10:17:50;;;;;;;2.10;0.60;;;;;;;7.01;100.00;99792.88;5443613;26;20466;-66
2024/04/19 10:20:21;;;;;;;2.10;0.70;;;;;;;6.94;100.00;99787.06;5444052;26;20453;-66
2024/04/19 10:22:51;;;;;;;2.57;0.83;;;;;;;6.91;100.00;99774.22;5444072;26;20466;-66
2024/04/19 10:25:23;;;;;;;2.00;0.53;;;;;;;6.92;100.00;99775.00;5441437;26;20519;-66
2024/04/19 10:27:52;;;;;;;2.70;0.80;;;;;;;6.90;100.00;99775.28;5444049;26;20465;-66
2024/04/19 10:30:23;;;;;;;2.20;0.80;;;;;;;6.93;100.00;99776.59;5443688;26;20462;-67
2024/04/19 10:32:54;;;;;;;2.03;0.67;;;;;;;6.92;100.00;99765.03;5443955;26;20474;-66
2024/04/19 10:35:23;;;;;;;2.10;0.60;;;;;;;6.88;100.00;99772.09;5424320;26;20523;-66
2024/04/19 10:37:52;;;;;;;2.20;0.77;;;;;;;6.90;100.00;99766.41;5408078;26;20503;-66
2024/04/19 10:40:21;;;;;;;2.10;0.40;;;;;;;6.89;100.00;99768.31;5426328;26;20470;-68
2024/04/19 10:42:50;;;;;;;1.90;0.40;;;;;;;6.85;100.00;99761.13;5437406;26;20524;-68
2024/04/19 10:45:18;;;;;;;2.37;0.60;;;;;;;6.77;100.00;99751.84;5408464;26;20593;-68
2024/04/19 10:47:49;;;;;;;2.00;0.50;;;;;;;6.75;100.00;99748.66;5407859;26;20456;-67
2024/04/19 10:50:17;;;;;;;2.00;0.60;;;;;;;6.81;100.00;99753.63;5413552;26;20514;-67
2024/04/19 10:52:46;;;;;;;2.30;0.83;;;;;;;6.80;100.00;99749.34;5443282;26;20474;-68
2024/04/19 10:55:14;;;;;;;1.90;0.30;;;;;;;6.81;100.00;99742.88;5442681;26;20861;-67
2024/04/19 10:57:42;;;;;;;2.67;0.90;;;;;;;6.77;100.00;99741.88;5442866;26;20519;-68
2024/04/19 11:00:12;;;;;;;2.30;0.93;;;;;;;6.77;100.00;99743.75;5443280;26;20518;-71
2024/04/19 11:02:41;;;;;;;2.00;0.50;;;;;;;6.72;100.00;99747.34;5439298;26;20540;-70
2024/04/19 11:05:10;;;;;;;10.03;0.90;;;;;;;6.68;100.00;99749.03;5443303;26;21061;-72
2024/04/19 11:07:38;;;;;;;2.00;0.60;;;;;;;6.62;100.00;99746.72;5441914;26;20470;-68
2024/04/19 11:10:08;;;;;;;2.03;0.50;;;;;;;6.60;100.00;99738.97;5419074;26;21042;-71
2024/04/19 11:12:36;;;;;;;1.90;0.30;;;;;;;6.51;100.00;99746.13;5408328;26;20479;-69
2024/04/19 11:15:05;;;;;;;1.90;0.40;;;;;;;6.36;100.00;99743.66;5407406;26;20554;-69
2024/04/19 11:17:34;;;;;;;1.90;0.37;;;;;;;6.26;100.00;99731.19;5414244;26;20532;-69
2024/04/19 11:20:02;;;;;;;2.00;0.47;;;;;;;6.25;100.00;99725.00;5424328;26;20514;-69
2024/04/19 11:22:36;;;;;;;2.10;0.73;;;;;;;6.29;100.00;99725.22;5436788;26;20489;-69
2024/04/19 11:25:05;;;;;;;1.90;0.40;;;;;;;6.35;100.00;99715.97;5431772;26;20473;-69
2024/04/19 11:27:34;;;;;;;2.63;0.93;;;;;;;6.32;100.00;99708.47;5408457;26;20447;-69
2024/04/19 11:30:02;;;;;;;1.97;0.40;;;;;;;6.20;100.00;99700.88;5433651;26;21077;-69
2024/04/19 11:32:32;;;;;;;1.90;0.30;;;;;;;6.14;100.00;99696.66;5434330;26;20479;-68
2024/04/19 11:35:01;;;;;;;1.90;0.30;;;;;;;6.14;100.00;99695.88;5423864;26;20526;-68
2024/04/19 11:37:32;;;;;;;1.87;0.30;;;;;;;6.15;100.00;99687.50;5443060;26;20583;-68
2024/04/19 11:40:01;;;;;;;1.90;0.30;;;;;;;6.23;100.00;99689.53;5442492;26;20469;-68
2024/04/19 11:42:29;;;;;;;1.90;0.47;;;;;;;6.23;100.00;99684.16;5425843;26;20825;-68
2024/04/19 11:44:57;;;;;;;1.87;0.30;;;;;;;6.28;100.00;99684.06;5442377;26;20473;-68
2024/04/19 11:47:26;;;;;;;1.87;0.43;;;;;;;6.40;100.00;99672.03;5442740;26;21042;-68